Time;durP1;ratioP1;P1;durP2;ratioP2;P2;SDS_P1;SDS_P2;PMS_P1;PMS_P2;Temp;Humidity;BMP_temperature;BMP_pressure;BME280_temperature;BME280_humidity;BME280_pressure;Samples;Min_cycle;Max_cycle;Signal;HPM_P1;HPM_P2
2022/07/17 00:02:05;;;;;;;;;;;;;;;15.56;80.87;99652.59;4972775;28;20021;-67
2022/07/17 00:04:31;;;;;;;;;;;;;;;15.59;80.41;99657.47;4997218;28;20407;-65
2022/07/17 00:06:58;;;;;;;;;;;;;;;15.65;80.22;99655.41;4991736;28;20368;-64
2022/07/17 00:09:23;;;;;;;;;;;;;;;15.66;79.61;99657.03;4992268;28;19929;-62
2022/07/17 00:11:49;;;;;;;;;;;;;;;15.63;79.54;99665.13;5009777;28;19929;-66
2022/07/17 00:14:15;;;;;;;;;;;;;;;15.69;79.86;99667.44;5007960;28;19935;-67
2022/07/17 00:16:41;;;;;;;;;;;;;;;15.70;79.63;99663.56;5009112;28;19930;-66
2022/07/17 00:19:07;;;;;;;;;;;;;;;15.75;79.43;99659.88;5005815;28;19959;-67
2022/07/17 00:21:33;;;;;;;;;;;;;;;15.78;78.84;99661.19;5006439;28;20035;-67
2022/07/17 00:24:00;;;;;;;;;;;;;;;15.81;78.63;99661.34;4991830;28;19956;-64
2022/07/17 00:26:26;;;;;;;;;;;;;;;15.86;78.57;99661.25;5010065;28;19983;-67
2022/07/17 00:28:51;;;;;;;;;;;;;;;15.88;77.77;99660.91;5007667;28;20367;-66
2022/07/17 00:31:17;;;;;;;;;;;;;;;15.89;77.66;99651.53;5007929;28;20423;-65
2022/07/17 00:33:43;;;;;;;;;;;;;;;15.95;78.16;99649.47;5008127;28;19930;-66
2022/07/17 00:36:09;;;;;;;;;;;;;;;16.04;78.18;99646.78;4990726;28;19930;-67
2022/07/17 00:38:35;;;;;;;;;;;;;;;16.07;77.82;99646.13;5006331;28;19975;-65
2022/07/17 00:41:02;;;;;;;;;;;;;;;16.09;77.94;99644.69;5006488;28;19936;-66
2022/07/17 00:43:27;;;;;;;;;;;;;;;16.07;78.05;99640.63;5007485;28;20040;-64
2022/07/17 00:45:54;;;;;;;;;;;;;;;16.01;78.18;99649.03;4974838;28;20037;-64
2022/07/17 00:48:20;;;;;;;;;;;;;;;15.97;78.29;99644.47;5010311;28;19983;-65
2022/07/17 00:50:46;;;;;;;;;;;;;;;15.93;78.66;99646.22;4991517;28;19929;-64
2022/07/17 00:53:11;;;;;;;;;;;;;;;15.98;78.49;99651.59;4992578;28;19936;-65
2022/07/17 00:55:39;;;;;;;;;;;;;;;16.03;78.22;99640.47;5009755;28;19930;-65
2022/07/17 00:58:07;;;;;;;;;;;;;;;16.06;78.07;99650.84;5008401;28;20223;-63
2022/07/17 01:00:33;;;;;;;;;;;;;;;16.10;78.44;99648.28;4993088;28;19937;-64
2022/07/17 01:02:59;;;;;;;;;;;;;;;16.10;78.49;99648.28;5008511;28;19936;-64
2022/07/17 01:05:25;;;;;;;;;;;;;;;16.04;78.55;99655.03;4992391;28;19929;-64
2022/07/17 01:07:51;;;;;;;;;;;;;;;15.95;78.45;99653.06;5008497;28;19976;-64
2022/07/17 01:10:17;;;;;;;;;;;;;;;15.97;78.02;99653.56;4988755;28;20392;-65
2022/07/17 01:12:44;;;;;;;;;;;;;;;15.94;77.89;99656.13;4973273;28;20048;-62
2022/07/17 01:15:12;;;;;;;;;;;;;;;15.91;78.07;99654.81;4993236;28;19965;-65
2022/07/17 01:17:38;;;;;;;;;;;;;;;15.89;77.92;99654.31;4988953;28;19931;-64
2022/07/17 01:20:05;;;;;;;;;;;;;;;15.84;77.84;99657.16;5021117;28;19975;-63
2022/07/17 01:22:32;;;;;;;;;;;;;;;15.81;77.74;99660.56;5009227;28;20446;-63
2022/07/17 01:24:58;;;;;;;;;;;;;;;15.82;77.95;99660.22;5011334;28;19952;-63
2022/07/17 01:27:23;;;;;;;;;;;;;;;15.87;78.12;99662.88;5011030;28;20392;-64
2022/07/17 01:29:49;;;;;;;;;;;;;;;15.94;77.72;99665.22;5026773;28;19929;-62
2022/07/17 01:32:15;;;;;;;;;;;;;;;15.95;77.49;99663.25;5027593;28;19951;-64
2022/07/17 01:34:41;;;;;;;;;;;;;;;15.96;77.32;99665.72;5026663;28;19929;-66
2022/07/17 01:37:06;;;;;;;;;;;;;;;15.98;77.28;99679.16;5027881;28;20031;-64
2022/07/17 01:42:18;;;;;;;;;;;;;;;15.87;77.27;99675.81;5008068;28;19998;-65
2022/07/17 01:44:43;;;;;;;;;;;;;;;15.85;76.70;99683.59;5013016;28;20336;-65
2022/07/17 01:47:09;;;;;;;;;;;;;;;15.83;75.46;99675.63;5027551;28;19929;-65
2022/07/17 01:49:35;;;;;;;;;;;;;;;15.83;74.76;99683.09;5009740;28;20071;-65
2022/07/17 01:52:01;;;;;;;;;;;;;;;15.80;75.05;99675.47;4991533;28;19956;-65
2022/07/17 01:54:27;;;;;;;;;;;;;;;15.78;75.57;99677.72;5028157;28;19945;-65
2022/07/17 01:56:54;;;;;;;;;;;;;;;15.78;75.46;99675.78;5027873;28;19929;-64
2022/07/17 01:59:20;;;;;;;;;;;;;;;15.78;75.37;99673.00;5027026;28;19929;-65
2022/07/17 02:01:46;;;;;;;;;;;;;;;15.79;75.54;99677.41;4992037;28;19936;-64
2022/07/17 02:04:12;;;;;;;;;;;;;;;15.80;75.42;99676.25;5009069;28;20019;-64
2022/07/17 02:06:37;;;;;;;;;;;;;;;15.80;75.42;99679.03;5009005;28;20039;-64
2022/07/17 02:09:03;;;;;;;;;;;;;;;15.80;75.41;99678.22;5009731;28;19929;-64
2022/07/17 02:11:29;;;;;;;;;;;;;;;15.77;75.38;99671.38;5026821;28;19952;-65
2022/07/17 02:13:56;;;;;;;;;;;;;;;15.78;75.54;99677.72;5025945;28;19957;-63
2022/07/17 02:16:22;;;;;;;;;;;;;;;15.75;75.37;99676.41;5027191;28;20035;-65
2022/07/17 02:18:48;;;;;;;;;;;;;;;15.75;74.97;99673.66;5027701;28;20019;-64
2022/07/17 02:21:13;;;;;;;;;;;;;;;15.71;75.13;99670.69;5026276;28;19995;-63
2022/07/17 02:23:39;;;;;;;;;;;;;;;15.74;74.91;99674.78;5027475;28;19928;-64
2022/07/17 02:26:05;;;;;;;;;;;;;;;15.74;74.83;99670.06;5025828;28;19929;-66
2022/07/17 02:28:31;;;;;;;;;;;;;;;15.75;74.82;99668.13;5010899;28;19935;-65
2022/07/17 02:30:58;;;;;;;;;;;;;;;15.76;75.23;99669.75;4975628;28;20040;-65
2022/07/17 02:33:23;;;;;;;;;;;;;;;15.79;74.86;99671.09;5025556;28;19934;-64
2022/07/17 02:35:49;;;;;;;;;;;;;;;15.82;74.90;99678.72;4987874;28;19937;-64
2022/07/17 02:38:15;;;;;;;;;;;;;;;15.82;74.66;99682.28;4989569;28;20371;-65
2022/07/17 02:40:41;;;;;;;;;;;;;;;15.85;74.93;99686.34;4989423;28;20308;-63
2022/07/17 02:43:07;;;;;;;;;;;;;;;15.83;74.84;99688.63;4987125;28;19953;-64
2022/07/17 02:45:33;;;;;;;;;;;;;;;15.78;75.37;99681.28;4990861;28;19930;-65
2022/07/17 02:48:00;;;;;;;;;;;;;;;15.71;75.72;99680.91;5005813;28;19965;-64
2022/07/17 02:50:26;;;;;;;;;;;;;;;15.64;76.20;99681.34;5004201;28;19933;-64
2022/07/17 02:52:51;;;;;;;;;;;;;;;15.65;76.46;99676.63;4987277;28;20400;-63
2022/07/17 02:55:17;;;;;;;;;;;;;;;15.63;76.88;99685.22;4988891;28;19929;-65
2022/07/17 02:57:43;;;;;;;;;;;;;;;15.63;76.75;99676.97;5006919;28;19971;-63
2022/07/17 03:00:11;;;;;;;;;;;;;;;15.66;76.74;99668.06;5006006;28;19936;-65
2022/07/17 03:02:37;;;;;;;;;;;;;;;15.72;76.56;99669.56;5004815;28;19991;-64
2022/07/17 03:05:04;;;;;;;;;;;;;;;15.74;76.60;99672.81;5001010;28;19933;-66
2022/07/17 03:07:30;;;;;;;;;;;;;;;15.79;76.55;99673.84;4995303;28;19938;-65
2022/07/17 03:09:56;;;;;;;;;;;;;;;15.82;76.61;99678.72;4984462;28;19976;-68
2022/07/17 03:12:22;;;;;;;;;;;;;;;15.77;76.65;99682.41;4984333;28;20365;-67
2022/07/17 03:14:48;;;;;;;;;;;;;;;15.81;76.62;99677.09;4988467;28;20024;-68
2022/07/17 03:17:14;;;;;;;;;;;;;;;15.87;76.44;99676.66;5008507;28;19952;-64
2022/07/17 03:19:40;;;;;;;;;;;;;;;15.93;76.23;99671.88;5024946;28;20388;-66
2022/07/17 03:22:07;;;;;;;;;;;;;;;15.99;76.34;99678.88;5023282;28;20005;-64
2022/07/17 03:24:33;;;;;;;;;;;;;;;16.06;75.91;99672.91;5024260;28;20065;-64
2022/07/17 03:26:58;;;;;;;;;;;;;;;16.11;75.66;99674.72;5002608;28;19953;-63
2022/07/17 03:29:24;;;;;;;;;;;;;;;16.18;75.40;99666.00;5023106;28;19929;-64
2022/07/17 03:31:50;;;;;;;;;;;;;;;16.22;75.42;99670.56;5025504;28;19929;-64
2022/07/17 03:34:15;;;;;;;;;;;;;;;16.27;75.29;99669.63;5028079;28;19972;-63
2022/07/17 03:36:45;;;;;;;;;;;;;;;16.35;74.88;99668.84;5028678;28;19929;-67
2022/07/17 03:39:12;;;;;;;;;;;;;;;16.43;74.75;99670.84;4990765;28;20031;-64
2022/07/17 03:41:38;;;;;;;;;;;;;;;16.51;74.35;99674.75;5008439;28;19971;-64
2022/07/17 03:44:04;;;;;;;;;;;;;;;16.64;74.01;99677.75;5008964;28;19961;-64
2022/07/17 03:46:29;;;;;;;;;;;;;;;16.69;73.58;99691.38;4990236;28;19929;-64
2022/07/17 03:48:55;;;;;;;;;;;;;;;16.76;73.90;99669.66;5011307;28;20391;-63
2022/07/17 03:51:21;;;;;;;;;;;;;;;16.84;73.12;99665.31;5008392;28;19930;-64
2022/07/17 03:53:46;;;;;;;;;;;;;;;16.88;72.87;99669.06;5010088;28;20331;-64
2022/07/17 03:56:14;;;;;;;;;;;;;;;17.05;72.45;99671.09;5007993;28;19930;-64
2022/07/17 03:58:40;;;;;;;;;;;;;;;17.24;72.05;99676.28;4990392;28;19944;-64
2022/07/17 04:01:05;;;;;;;;;;;;;;;17.45;71.53;99675.69;4991609;28;20197;-64
2022/07/17 04:03:31;;;;;;;;;;;;;;;17.66;70.82;99669.50;4992180;28;20308;-64
2022/07/17 04:05:57;;;;;;;;;;;;;;;17.81;69.32;99680.06;5007254;28;19929;-63
2022/07/17 04:08:23;;;;;;;;;;;;;;;17.86;68.97;99677.13;5008371;28;19929;-64
2022/07/17 04:10:48;;;;;;;;;;;;;;;17.90;68.55;99677.28;4990975;28;19929;-65
2022/07/17 04:13:16;;;;;;;;;;;;;;;18.04;68.53;99679.91;5008359;28;19929;-65
2022/07/17 04:15:57;;;;;;;;;;;;;;;18.09;66.83;99676.97;5009608;28;19929;-63
2022/07/17 04:18:23;;;;;;;;;;;;;;;17.88;66.36;99674.03;5008997;28;19944;-64
2022/07/17 04:20:49;;;;;;;;;;;;;;;17.79;65.91;99670.47;5009781;28;19930;-66
2022/07/17 04:23:16;;;;;;;;;;;;;;;17.69;65.47;99677.97;5006695;28;19976;-67
2022/07/17 04:25:42;;;;;;;;;;;;;;;17.70;64.91;99678.75;5007112;28;19992;-67
2022/07/17 04:28:07;;;;;;;;;;;;;;;17.68;64.67;99675.50;4989542;28;19929;-68
2022/07/17 04:30:35;;;;;;;;;;;;;;;17.75;64.10;99675.03;4990323;28;20027;-67
2022/07/17 04:33:00;;;;;;;;;;;;;;;17.85;62.96;99669.97;5009098;28;19991;-66
2022/07/17 04:35:26;;;;;;;;;;;;;;;18.13;62.72;99666.06;5030444;28;20342;-66
2022/07/17 04:37:52;;;;;;;;;;;;;;;18.45;61.82;99669.38;5028961;28;19960;-64
2022/07/17 04:40:18;;;;;;;;;;;;;;;18.74;60.40;99661.44;5027398;28;19951;-64
2022/07/17 04:42:43;;;;;;;;;;;;;;;18.99;59.61;99670.78;5025717;28;20058;-66
2022/07/17 04:45:09;;;;;;;;;;;;;;;18.97;59.55;99673.03;5024842;28;19929;-65
2022/07/17 04:47:37;;;;;;;;;;;;;;;18.88;59.60;99666.72;4984882;28;19937;-64
2022/07/17 04:50:03;;;;;;;;;;;;;;;18.80;59.50;99668.41;4990028;28;20039;-63
2022/07/17 04:52:29;;;;;;;;;;;;;;;18.80;59.72;99666.47;5011387;28;19965;-65
2022/07/17 04:54:55;;;;;;;;;;;;;;;18.85;59.75;99669.03;5004953;28;19929;-67
2022/07/17 04:57:21;;;;;;;;;;;;;;;18.90;59.43;99668.03;5025639;28;19935;-67
2022/07/17 04:59:46;;;;;;;;;;;;;;;18.92;59.92;99676.00;5004296;28;19969;-65
2022/07/17 05:02:12;;;;;;;;;;;;;;;18.91;59.83;99666.88;4996547;28;19929;-68
2022/07/17 05:04:39;;;;;;;;;;;;;;;18.84;60.11;99663.84;4989703;28;19930;-66
2022/07/17 05:07:05;;;;;;;;;;;;;;;18.73;59.80;99665.34;4986152;28;19930;-65
2022/07/17 05:09:30;;;;;;;;;;;;;;;18.75;59.15;99669.41;4996993;28;20454;-67
2022/07/17 05:11:56;;;;;;;;;;;;;;;18.82;58.27;99650.31;5007818;28;19957;-67
2022/07/17 05:14:22;;;;;;;;;;;;;;;19.20;57.67;99678.31;5008488;28;19937;-68
2022/07/17 05:16:47;;;;;;;;;;;;;;;19.48;56.51;99680.56;4989051;28;20420;-68
2022/07/17 05:19:13;;;;;;;;;;;;;;;19.58;55.67;99676.56;4988874;28;19929;-68
2022/07/17 05:21:41;;;;;;;;;;;;;;;19.59;55.81;99687.31;5006613;28;19938;-67
2022/07/17 05:24:07;;;;;;;;;;;;;;;19.62;55.52;99680.31;4989915;28;20304;-67
2022/07/17 05:26:33;;;;;;;;;;;;;;;19.64;55.59;99680.78;4989838;28;19944;-67
2022/07/17 05:28:58;;;;;;;;;;;;;;;19.72;55.14;99684.63;4989195;28;19936;-67
2022/07/17 05:31:24;;;;;;;;;;;;;;;19.78;54.90;99677.69;5007868;28;19941;-65
2022/07/17 05:33:50;;;;;;;;;;;;;;;19.78;54.83;99680.47;4994618;28;20036;-65
2022/07/17 05:36:15;;;;;;;;;;;;;;;19.82;54.98;99675.84;4972666;28;19986;-66
2022/07/17 05:38:42;;;;;;;;;;;;;;;19.91;54.74;99676.59;4994876;28;19930;-64
2022/07/17 05:41:08;;;;;;;;;;;;;;;20.10;53.76;99675.28;4977478;28;19940;-67
2022/07/17 05:43:34;;;;;;;;;;;;;;;20.25;52.95;99673.84;4990818;28;19929;-66
2022/07/17 05:45:59;;;;;;;;;;;;;;;20.35;52.67;99670.63;4982994;28;20024;-66
2022/07/17 05:48:26;;;;;;;;;;;;;;;20.46;52.50;99678.50;4961038;28;20025;-68
2022/07/17 05:50:51;;;;;;;;;;;;;;;20.48;51.83;99671.47;5001871;28;20381;-67
2022/07/17 05:53:17;;;;;;;;;;;;;;;20.44;51.91;99667.72;4982755;28;19932;-64
2022/07/17 05:55:44;;;;;;;;;;;;;;;20.45;52.12;99658.28;4977173;28;20355;-68
2022/07/17 05:58:10;;;;;;;;;;;;;;;20.30;51.75;99659.75;4982679;28;19929;-65
2022/07/17 06:00:37;;;;;;;;;;;;;;;20.10;51.91;99659.47;4964780;28;19929;-64
2022/07/17 06:03:03;;;;;;;;;;;;;;;19.96;52.23;99658.97;4974413;28;19929;-64
2022/07/17 06:05:31;;;;;;;;;;;;;;;19.86;52.36;99660.19;4991338;28;19929;-68
2022/07/17 06:07:58;;;;;;;;;;;;;;;19.68;52.29;99659.53;4954857;28;20364;-64
2022/07/17 06:10:24;;;;;;;;;;;;;;;19.58;52.28;99665.47;5005458;28;19935;-67
2022/07/17 06:12:54;;;;;;;;;;;;;;;19.50;51.80;99656.06;5006977;28;20360;-68
2022/07/17 06:15:22;;;;;;;;;;;;;;;19.37;51.76;99663.53;5010557;28;19981;-65
2022/07/17 06:17:51;;;;;;;;;;;;;;;19.34;51.38;99665.00;4977687;28;19961;-65
2022/07/17 06:20:17;;;;;;;;;;;;;;;19.20;51.16;99662.50;5007640;28;20220;-67
2022/07/17 06:22:43;;;;;;;;;;;;;;;19.18;51.59;99653.72;5007233;28;19999;-67
2022/07/17 06:25:09;;;;;;;;;;;;;;;19.30;51.26;99661.28;5003886;28;20388;-67
2022/07/17 06:27:38;;;;;;;;;;;;;;;19.47;50.66;99670.63;5007424;28;19952;-67
2022/07/17 06:30:06;;;;;;;;;;;;;;;19.49;50.29;99663.59;4985459;28;19929;-68
2022/07/17 06:32:33;;;;;;;;;;;;;;;19.67;50.00;99664.28;4986715;28;20271;-68
2022/07/17 06:34:59;;;;;;;;;;;;;;;19.84;49.72;99657.72;4987443;28;20364;-67
2022/07/17 06:37:25;;;;;;;;;;;;;;;20.13;49.24;99657.97;4970306;28;19936;-65
2022/07/17 06:39:50;;;;;;;;;;;;;;;20.36;48.64;99660.34;4976051;28;20336;-66
2022/07/17 06:42:16;;;;;;;;;;;;;;;20.49;47.57;99648.09;5003664;28;20028;-68
2022/07/17 06:44:42;;;;;;;;;;;;;;;20.58;47.34;99642.44;5004428;28;20453;-68
2022/07/17 06:47:09;;;;;;;;;;;;;;;20.76;46.93;99648.56;5019209;28;19989;-67
2022/07/17 06:49:35;;;;;;;;;;;;;;;20.68;46.71;99644.75;5015777;28;20320;-66
2022/07/17 06:52:00;;;;;;;;;;;;;;;20.51;47.12;99639.41;5015103;28;19977;-67
2022/07/17 06:54:26;;;;;;;;;;;;;;;20.57;47.02;99635.25;4972346;28;19968;-67
2022/07/17 06:56:52;;;;;;;;;;;;;;;20.54;46.58;99639.53;4988628;28;19968;-68
2022/07/17 06:59:19;;;;;;;;;;;;;;;20.49;46.98;99633.38;5001379;28;19944;-68
2022/07/17 07:01:45;;;;;;;;;;;;;;;20.60;46.97;99636.50;5017853;28;19933;-68
2022/07/17 07:04:12;;;;;;;;;;;;;;;20.79;46.38;99642.31;4999061;28;19936;-68
2022/07/17 07:06:37;;;;;;;;;;;;;;;20.80;45.85;99607.84;5019516;28;19968;-67
2022/07/17 07:09:03;;;;;;;;;;;;;;;21.23;45.24;99630.56;5026919;28;19971;-67
2022/07/17 07:11:29;;;;;;;;;;;;;;;21.47;44.60;99633.63;5025866;28;19929;-68
2022/07/17 07:13:55;;;;;;;;;;;;;;;21.54;44.59;99634.66;5007648;28;20044;-67
2022/07/17 07:16:21;;;;;;;;;;;;;;;21.61;44.54;99633.22;5020724;28;19956;-68
2022/07/17 07:18:46;;;;;;;;;;;;;;;21.72;44.01;99633.56;5005429;28;19929;-68
2022/07/17 07:21:14;;;;;;;;;;;;;;;21.86;43.25;99638.72;4990873;28;19929;-68
2022/07/17 07:23:40;;;;;;;;;;;;;;;22.02;43.18;99636.78;5005754;28;20266;-68
2022/07/17 07:26:05;;;;;;;;;;;;;;;22.25;42.37;99636.19;5006244;28;19929;-67
2022/07/17 07:28:31;;;;;;;;;;;;;;;22.37;41.80;99643.63;4989619;28;19936;-68
2022/07/17 07:30:57;;;;;;;;;;;;;;;22.22;41.76;99646.06;4991947;28;20036;-67
2022/07/17 07:33:23;;;;;;;;;;;;;;;22.34;41.97;99653.50;5025067;28;19936;-67
2022/07/17 07:35:49;;;;;;;;;;;;;;;22.56;41.08;99634.59;5008250;28;19964;-68
2022/07/17 07:38:16;;;;;;;;;;;;;;;22.79;40.66;99640.31;5007874;28;20435;-68
2022/07/17 07:40:42;;;;;;;;;;;;;;;23.21;40.25;99632.47;5005941;28;20400;-66
2022/07/17 07:43:08;;;;;;;;;;;;;;;23.81;39.47;99628.53;5000802;28;19941;-68
2022/07/17 07:45:34;;;;;;;;;;;;;;;24.23;37.88;99638.09;5002771;28;19930;-68
2022/07/17 07:48:00;;;;;;;;;;;;;;;24.33;37.14;99628.28;5006627;28;19929;-66
2022/07/17 07:50:26;;;;;;;;;;;;;;;24.07;36.81;99632.66;5001366;28;19935;-68
2022/07/17 07:52:52;;;;;;;;;;;;;;;24.01;36.76;99634.09;5013310;28;19929;-68
2022/07/17 07:55:21;;;;;;;;;;;;;;;23.91;36.99;99632.72;4996363;28;20400;-67
2022/07/17 07:57:46;;;;;;;;;;;;;;;23.99;37.04;99642.03;5023522;28;20038;-68
2022/07/17 08:00:13;;;;;;;;;;;;;;;23.87;37.12;99646.59;5002672;28;20439;-67
2022/07/17 08:02:39;;;;;;;;;;;;;;;23.79;36.80;99642.84;4997636;28;19956;-68
2022/07/17 08:05:05;;;;;;;;;;;;;;;24.16;36.47;99649.97;4985936;28;20023;-64
2022/07/17 08:07:31;;;;;;;;;;;;;;;24.46;36.33;99646.50;4987000;28;19936;-64
2022/07/17 08:09:58;;;;;;;;;;;;;;;24.76;35.48;99647.81;4984614;28;20036;-64
2022/07/17 08:12:25;;;;;;;;;;;;;;;24.98;34.62;99651.75;4967544;28;20336;-68
2022/07/17 08:14:50;;;;;;;;;;;;;;;24.90;35.17;99655.59;4984517;28;19960;-68
2022/07/17 08:17:17;;;;;;;;;;;;;;;24.85;35.65;99658.72;5022621;28;19998;-68
2022/07/17 08:19:43;;;;;;;;;;;;;;;24.80;34.87;99647.84;5009615;28;19932;-68
2022/07/17 08:22:08;;;;;;;;;;;;;;;24.59;35.44;99644.31;5026671;28;20457;-68
2022/07/17 08:24:34;;;;;;;;;;;;;;;24.84;35.03;99652.31;5025609;28;19929;-68
2022/07/17 08:27:00;;;;;;;;;;;;;;;25.17;34.85;99647.19;5007093;28;20316;-67
2022/07/17 08:29:27;;;;;;;;;;;;;;;25.12;34.57;99639.94;4990410;28;19930;-68
2022/07/17 08:31:53;;;;;;;;;;;;;;;24.98;34.55;99650.91;4988245;28;19976;-68
2022/07/17 08:34:19;;;;;;;;;;;;;;;24.85;34.23;99651.13;5008154;28;19992;-68
2022/07/17 08:36:44;;;;;;;;;;;;;;;25.56;32.67;99644.13;4989014;28;19937;-68
2022/07/17 08:39:10;;;;;;;;;;;;;;;25.88;31.99;99646.50;5025602;28;19929;-64
2022/07/17 08:41:37;;;;;;;;;;;;;;;26.42;31.53;99653.84;5029202;28;19929;-65
2022/07/17 08:44:03;;;;;;;;;;;;;;;27.09;30.30;99649.19;5028230;28;19929;-65
2022/07/17 08:46:30;;;;;;;;;;;;;;;27.67;29.28;99648.66;5007837;28;20463;-65
2022/07/17 08:48:59;;;;;;;;;;;;;;;27.84;28.98;99649.91;5024552;28;20032;-65
2022/07/17 08:51:26;;;;;;;;;;;;;;;27.71;29.10;99652.28;5008074;28;19953;-65
2022/07/17 08:53:52;;;;;;;;;;;;;;;27.41;29.51;99642.94;4987944;28;19969;-65
2022/07/17 08:56:18;;;;;;;;;;;;;;;27.15;30.10;99653.22;5002660;28;20437;-66
2022/07/17 08:58:44;;;;;;;;;;;;;;;26.55;31.01;99655.16;5002426;28;19936;-65
2022/07/17 09:01:10;;;;;;;;;;;;;;;26.41;31.48;99650.25;4650007;28;9999770;-65
2022/07/17 09:03:38;;;;;;;;;;;;;;;26.11;31.64;99651.13;4986049;28;20311;-64
2022/07/17 09:06:04;;;;;;;;;;;;;;;25.90;31.80;99658.09;4984626;28;19984;-65
2022/07/17 09:08:33;;;;;;;;;;;;;;;25.62;32.32;99656.63;4981943;28;19929;-67
2022/07/17 09:10:59;;;;;;;;;;;;;;;25.32;32.77;99651.81;4970439;28;19929;-68
2022/07/17 09:13:26;;;;;;;;;;;;;;;24.97;33.00;99664.06;4991813;28;19981;-65
2022/07/17 09:15:53;;;;;;;;;;;;;;;24.96;33.34;99659.66;4987779;28;20020;-68
2022/07/17 09:18:20;;;;;;;;;;;;;;;25.21;33.13;99662.03;4992070;28;20323;-65
2022/07/17 09:20:48;;;;;;;;;;;;;;;25.98;32.12;99647.78;5004481;28;19930;-64
2022/07/17 09:23:15;;;;;;;;;;;;;;;27.58;29.82;99649.81;5010970;28;19975;-67
2022/07/17 09:25:41;;;;;;;;;;;;;;;28.82;28.20;99650.88;4998492;28;20388;-67
2022/07/17 09:28:08;;;;;;;;;;;;;;;29.67;27.47;99655.84;4976292;28;19930;-68
2022/07/17 09:30:35;;;;;;;;;;;;;;;28.91;27.77;99650.44;4984324;28;19930;-67
2022/07/17 09:33:01;;;;;;;;;;;;;;;27.22;30.50;99660.88;4987067;28;20015;-67
2022/07/17 09:35:27;;;;;;;;;;;;;;;25.94;32.45;99662.97;5004640;28;20357;-68
2022/07/17 09:37:54;;;;;;;;;;;;;;;25.12;33.88;99667.09;4989740;28;20458;-68
2022/07/17 09:43:06;;;;;;;;;;;;;;;24.34;34.68;99658.66;5007229;28;19936;-66
2022/07/17 09:45:33;;;;;;;;;;;;;;;24.08;35.65;99660.19;5005931;28;20376;-67
2022/07/17 09:47:58;;;;;;;;;;;;;;;23.58;36.42;99660.00;5005709;28;19933;-67
2022/07/17 09:50:26;;;;;;;;;;;;;;;23.29;37.05;99651.03;5001570;28;20447;-68
2022/07/17 09:52:55;;;;;;;;;;;;;;;23.08;37.63;99648.53;5003526;28;19929;-68
2022/07/17 09:55:22;;;;;;;;;;;;;;;22.88;38.59;99647.66;4984441;28;20392;-65
2022/07/17 09:57:48;;;;;;;;;;;;;;;22.71;38.48;99646.06;4999485;28;20525;-65
2022/07/17 10:00:15;;;;;;;;;;;;;;;22.64;37.60;99663.44;5004080;28;19929;-64
2022/07/17 10:02:41;;;;;;;;;;;;;;;22.70;37.40;99659.19;4994273;28;20123;-68
2022/07/17 10:05:08;;;;;;;;;;;;;;;22.82;37.14;99660.28;4971793;28;19929;-67
2022/07/17 10:07:34;;;;;;;;;;;;;;;22.90;36.86;99656.47;5007458;28;20099;-63
2022/07/17 10:10:01;;;;;;;;;;;;;;;23.03;36.95;99651.63;5025728;28;19929;-67
2022/07/17 10:12:27;;;;;;;;;;;;;;;23.14;36.78;99658.22;5024285;28;19929;-67
2022/07/17 10:14:53;;;;;;;;;;;;;;;23.40;36.45;99661.59;4975322;28;20411;-69
2022/07/17 10:17:20;;;;;;;;;;;;;;;23.50;36.42;99667.41;4995297;28;20385;-67
2022/07/17 10:19:47;;;;;;;;;;;;;;;23.47;36.21;99662.53;5011195;28;19929;-67
2022/07/17 10:22:13;;;;;;;;;;;;;;;23.51;36.64;99668.22;5023215;28;19929;-68
2022/07/17 10:24:45;;;;;;;;;;;;;;;23.78;36.28;99654.41;5023587;28;19943;-66
2022/07/17 10:27:18;;;;;;;;;;;;;;;24.25;35.37;99658.09;5024041;28;19971;-68
2022/07/17 10:29:44;;;;;;;;;;;;;;;25.04;34.42;99655.00;5023567;28;20265;-68
2022/07/17 10:32:14;;;;;;;;;;;;;;;25.57;34.10;99656.94;5022001;28;19944;-68
2022/07/17 10:34:41;;;;;;;;;;;;;;;25.51;34.34;99652.03;5003988;28;20020;-66
2022/07/17 10:37:14;;;;;;;;;;;;;;;25.73;33.92;99655.91;5003140;28;19972;-67
2022/07/17 10:39:51;;;;;;;;;;;;;;;26.35;32.89;99646.19;5006717;28;19930;-64
2022/07/17 10:42:36;;;;;;;;;;;;;;;26.83;32.17;99653.78;5007283;28;20037;-65
2022/07/17 10:45:06;;;;;;;;;;;;;;;26.51;32.53;99661.94;5008686;28;19929;-65
2022/07/17 10:47:41;;;;;;;;;;;;;;;25.90;33.18;99641.31;5022642;28;19929;-64
2022/07/17 10:50:07;;;;;;;;;;;;;;;26.74;32.01;99656.91;5006594;28;19929;-65
2022/07/17 10:52:33;;;;;;;;;;;;;;;27.13;31.21;99660.41;5025971;28;19935;-65
2022/07/17 10:54:58;;;;;;;;;;;;;;;28.06;30.24;99653.56;5007850;28;19933;-65
2022/07/17 10:57:26;;;;;;;;;;;;;;;28.99;29.02;99642.81;5024476;28;20423;-64
2022/07/17 10:59:52;;;;;;;;;;;;;;;28.59;29.08;99651.25;5007596;28;19929;-65
2022/07/17 11:02:27;;;;;;;;;;;;;;;28.42;29.55;99642.44;4993752;28;19929;-65
2022/07/17 11:04:53;;;;;;;;;;;;;;;27.99;29.82;99620.66;5013409;28;20066;-65
2022/07/17 11:07:19;;;;;;;;;;;;;;;27.17;31.44;99619.94;5006529;28;19940;-66
2022/07/17 11:09:46;;;;;;;;;;;;;;;26.39;32.48;99623.81;5024098;28;19929;-65
2022/07/17 11:12:12;;;;;;;;;;;;;;;25.63;33.45;99596.66;5006291;28;19933;-65
2022/07/17 11:14:39;;;;;;;;;;;;;;;25.61;33.12;99623.41;5007358;28;19979;-64
2022/07/17 11:17:05;;;;;;;;;;;;;;;25.80;32.65;99622.41;5005619;28;19929;-65
2022/07/17 11:19:31;;;;;;;;;;;;;;;26.16;31.89;99638.78;5004211;28;20031;-66
2022/07/17 11:21:58;;;;;;;;;;;;;;;26.22;31.50;99637.25;5004317;28;20293;-64
2022/07/17 11:24:26;;;;;;;;;;;;;;;26.04;31.59;99635.06;5006774;28;19977;-64
2022/07/17 11:26:51;;;;;;;;;;;;;;;25.48;32.16;99648.03;5016171;28;19933;-64
2022/07/17 11:29:17;;;;;;;;;;;;;;;25.20;32.53;99649.22;5023253;28;19929;-65
2022/07/17 11:31:44;;;;;;;;;;;;;;;24.98;32.51;99645.31;5005255;28;19940;-65
2022/07/17 11:34:11;;;;;;;;;;;;;;;24.76;33.05;99640.22;5004976;28;19929;-65
2022/07/17 11:36:38;;;;;;;;;;;;;;;24.71;33.16;99643.31;5022226;28;19929;-62
2022/07/17 11:39:05;;;;;;;;;;;;;;;24.76;33.07;99637.41;5005444;28;19929;-65
2022/07/17 11:41:32;;;;;;;;;;;;;;;24.77;33.00;99641.81;5023332;28;19929;-65
2022/07/17 11:43:58;;;;;;;;;;;;;;;24.84;32.59;99629.16;5023817;28;20015;-68
2022/07/17 11:46:25;;;;;;;;;;;;;;;24.77;32.60;99636.22;5022608;28;20353;-68
2022/07/17 11:48:52;;;;;;;;;;;;;;;25.48;31.49;99626.44;5007352;28;19937;-67
2022/07/17 11:51:18;;;;;;;;;;;;;;;27.43;29.06;99625.69;5003012;28;19988;-68
2022/07/17 11:53:44;;;;;;;;;;;;;;;27.48;28.74;99633.75;5002867;28;20324;-68
2022/07/17 11:56:18;;;;;;;;;;;;;;;29.34;26.23;99631.81;5007380;28;19929;-68
2022/07/17 11:58:46;;;;;;;;;;;;;;;31.95;23.17;99629.59;5016268;28;19975;-68
2022/07/17 12:01:12;;;;;;;;;;;;;;;33.72;20.70;99633.34;5007526;28;19929;-65
2022/07/17 12:03:38;;;;;;;;;;;;;;;33.48;20.73;99624.94;4992793;28;20385;-64
2022/07/17 12:06:06;;;;;;;;;;;;;;;31.77;22.33;99627.81;5009262;28;19929;-65
2022/07/17 12:08:32;;;;;;;;;;;;;;;29.56;24.71;99621.31;4991794;28;19929;-63
2022/07/17 12:11:05;;;;;;;;;;;;;;;28.94;25.65;99627.13;5008162;28;19999;-65
2022/07/17 12:13:37;;;;;;;;;;;;;;;30.64;23.50;99608.53;5005720;28;19948;-65
2022/07/17 12:16:17;;;;;;;;;;;;;;;31.41;22.36;99617.00;4988181;28;20023;-66
2022/07/17 12:18:43;;;;;;;;;;;;;;;32.35;21.18;99624.16;5008832;28;19929;-66
2022/07/17 12:21:10;;;;;;;;;;;;;;;32.63;20.71;99615.59;4989425;28;20240;-66
2022/07/17 12:23:38;;;;;;;;;;;;;;;32.43;20.79;99616.34;4998588;28;20035;-65
2022/07/17 12:26:05;;;;;;;;;;;;;;;30.90;22.28;99611.09;5008838;28;19956;-65
2022/07/17 12:28:31;;;;;;;;;;;;;;;29.70;23.65;99604.34;5026571;28;19929;-65
2022/07/17 12:30:56;;;;;;;;;;;;;;;29.67;23.46;99576.22;5028182;28;19991;-64
2022/07/17 12:33:22;;;;;;;;;;;;;;;29.28;24.36;99612.56;5022774;28;19969;-67
2022/07/17 12:35:48;;;;;;;;;;;;;;;28.53;25.58;99616.28;5007190;28;19937;-68
2022/07/17 12:38:15;;;;;;;;;;;;;;;27.91;26.50;99607.81;5006971;28;19969;-68
2022/07/17 12:40:41;;;;;;;;;;;;;;;27.41;27.12;99605.63;5005385;28;20033;-68
2022/07/17 12:43:08;;;;;;;;;;;;;;;27.01;27.43;99603.44;5004752;28;19929;-69
2022/07/17 12:45:33;;;;;;;;;;;;;;;27.79;26.51;99605.38;5004450;28;20032;-68
2022/07/17 12:47:59;;;;;;;;;;;;;;;29.29;24.83;99610.56;5026012;28;20024;-68
2022/07/17 12:50:25;;;;;;;;;;;;;;;30.32;23.94;99608.78;5026663;28;20429;-69